ADDS METAR Data INFO
IDs: Format: Raw Decoded Include TAF

Data at: 1210 UTC 21 Jun 2018

KGLR 211153Z AUTO 09006G15KT 10SM CLR 13/09 A2997 RMK AO2 SLP144 T01330094 10156 20122 51015
KGLR 211053Z AUTO VRB04KT 10SM CLR 13/11 A2995 RMK AO2 SLP140 T01280106
KGLR 210953Z AUTO 07004KT 10SM CLR 12/11 A2994 RMK AO2 SLP135 T01220111
KGLR 210853Z AUTO 06009G16KT 10SM CLR 13/12 A2992 RMK AO2 SLP128 T01280117 55001
KGLR 210753Z AUTO 04008KT 10SM CLR 14/12 A2991 RMK AO2 SLP123 T01390122
KGLR 210653Z AUTO 05005KT 10SM CLR 15/12 A2991 RMK AO2 SLP125 T01500122
KGLR 210553Z AUTO 05005KT 10SM CLR 16/12 A2992 RMK AO2 SLP129 T01560122 10228 20139 56002
KGLR 210453Z AUTO 00000KT 10SM CLR 16/12 A2993 RMK AO2 SLP129 T01560122 402560117
KGLR 210353Z AUTO 00000KT 10SM CLR 14/12 A2992 RMK AO2 SLP129 T01440117
KGLR 210253Z AUTO 00000KT 10SM CLR 17/12 A2993 RMK AO2 SLP131 T01720122 53020
KGLR 210153Z AUTO 00000KT 10SM CLR 19/11 A2991 RMK AO2 SLP123 T01890111
KGLR 210053Z AUTO 33003KT 10SM CLR 22/09 A2988 RMK AO2 SLP113 T02170094
KGLR 202353Z AUTO VRB03KT 10SM CLR 23/12 A2987 RMK AO2 SLP111 T02280117 10256 20228 55005
KGLR 202253Z AUTO VRB06KT 10SM CLR 24/12 A2987 RMK AO2 SLP110 T02390122
KGLR 202153Z AUTO 33006KT 10SM CLR 24/12 A2987 RMK AO2 SLP113 T02440122
KGLR 202053Z AUTO VRB05KT 10SM SCT060 26/11 A2988 RMK AO2 SLP115 T02560106 58008
KGLR 201953Z AUTO 03004KT 10SM CLR 25/09 A2990 RMK AO2 SLP119 T02500094
KGLR 201853Z AUTO 04005KT 10SM CLR 25/09 A2990 RMK AO2 SLP122 T02500089
KGLR 201753Z AUTO VRB03KT 10SM FEW060 24/09 A2991 RMK AO2 SLP125 T02440094 10244 20144 58006
KGLR 201653Z AUTO 00000KT 10SM CLR 24/09 A2993 RMK AO2 SLP131 T02390094
KGLR 201553Z AUTO VRB03KT 10SM CLR 23/09 A2994 RMK AO2 SLP134 T02280089
KGLR 201453Z AUTO 08004KT 10SM CLR 21/08 A2993 RMK AO2 SLP132 T02110078 58003
KGLR 201353Z AUTO 10005KT 10SM CLR 21/09 A2995 RMK AO2 SLP136 T02060089
KGLR 201253Z AUTO 00000KT 10SM CLR 19/11 A2994 RMK AO2 SLP134 T01890106
KGLR 201153Z AUTO 00000KT 10SM CLR 14/13 A2994 RMK AO2 SLP135 T01440128 10144 20117 58006
KGLR 201053Z AUTO 00000KT 10SM CLR 13/12 A2994 RMK AO2 SLP136 T01330122
KGLR 200953Z AUTO 00000KT 10SM CLR 12/11 A2997 RMK AO2 SLP148 T01170111
KGLR 200853Z AUTO 00000KT 10SM CLR 13/12 A2996 RMK AO2 SLP143 T01280117 58005
KGLR 200753Z AUTO 00000KT 10SM CLR 13/12 A2997 RMK AO2 SLP147 T01330117
KGLR 200653Z AUTO 25003KT 10SM CLR 13/11 A2998 RMK AO2 SLP149 T01280111
KGLR 200553Z AUTO 00000KT 10SM CLR 13/11 A2998 RMK AO2 SLP150 T01280111 10222 20122 55011
KGLR 200453Z AUTO 00000KT 10SM CLR 14/12 A2997 RMK AO2 SLP149 T01390117 402330117
KGLR 200353Z AUTO 00000KT 10SM CLR 16/12 A2999 RMK AO2 SLP154 T01560117
KGLR 200253Z AUTO 00000KT 10SM CLR 17/11 A3001 RMK AO2 SLP160 T01670111 50001
KGLR 200153Z AUTO 00000KT 10SM CLR 19/12 A3001 RMK AO2 SLP160 T01890117
KGLR 200053Z AUTO 11003KT 10SM CLR 21/12 A3001 RMK AO2 SLP159 T02060117